Time;durP1;ratioP1;P1;durP2;ratioP2;P2;SDS_P1;SDS_P2;PMS_P1;PMS_P2;Temp;Humidity;BMP_temperature;BMP_pressure;BME280_temperature;BME280_humidity;BME280_pressure;Samples;Min_cycle;Max_cycle;Signal;HPM_P1;HPM_P2
2022/03/01 00:02:17;;;;;;;36.67;21.93;;;2.20;99.90;;;;;;5059479;28;38873;-76
2022/03/01 00:04:43;;;;;;;36.97;22.70;;;2.20;99.90;;;;;;5064470;28;39325;-76
2022/03/01 00:07:09;;;;;;;33.23;21.67;;;2.10;99.90;;;;;;5060861;28;37566;-76
2022/03/01 00:09:36;;;;;;;32.73;22.60;;;2.10;99.90;;;;;;5060645;28;39556;-76
2022/03/01 00:12:03;;;;;;;35.93;22.43;;;2.10;99.90;;;;;;5052984;28;38531;-76
2022/03/01 00:14:29;;;;;;;31.33;20.77;;;2.10;99.90;;;;;;5056891;28;38045;-76
2022/03/01 00:16:55;;;;;;;33.77;21.97;;;2.10;99.90;;;;;;5054386;28;38673;-76
2022/03/01 00:19:22;;;;;;;33.50;20.93;;;2.10;99.90;;;;;;5056154;28;40256;-76
2022/03/01 00:21:48;;;;;;;30.10;19.30;;;2.00;99.90;;;;;;5054871;28;39194;-76
2022/03/01 00:24:14;;;;;;;34.50;21.67;;;2.00;99.90;;;;;;5056138;28;38331;-77
2022/03/01 00:26:40;;;;;;;37.67;22.23;;;2.00;99.90;;;;;;5055355;28;37348;-76
2022/03/01 00:29:06;;;;;;;30.37;20.97;;;2.00;99.90;;;;;;5055467;28;37567;-76
2022/03/01 00:31:33;;;;;;;34.70;21.40;;;2.00;99.90;;;;;;5055796;28;40568;-77
2022/03/01 00:33:59;;;;;;;33.77;22.37;;;2.00;99.90;;;;;;5057045;28;38016;-77
2022/03/01 00:36:25;;;;;;;34.37;22.77;;;1.90;99.90;;;;;;5055268;28;37674;-77
2022/03/01 00:38:51;;;;;;;35.57;22.83;;;1.90;99.90;;;;;;5061521;28;38635;-76
2022/03/01 00:41:17;;;;;;;39.97;23.20;;;1.90;99.90;;;;;;5054711;28;38453;-76
2022/03/01 00:43:43;;;;;;;36.13;22.57;;;1.90;99.90;;;;;;5054544;28;37613;-77
2022/03/01 00:46:09;;;;;;;32.50;21.13;;;1.90;99.90;;;;;;5056513;28;37038;-76
2022/03/01 00:48:35;;;;;;;33.43;21.57;;;1.80;99.90;;;;;;5057574;28;39410;-77
2022/03/01 00:51:01;;;;;;;35.27;21.70;;;1.80;99.90;;;;;;5055151;28;40510;-76
2022/03/01 00:53:27;;;;;;;33.10;21.40;;;1.80;99.90;;;;;;5056531;28;48965;-76
2022/03/01 00:55:53;;;;;;;31.57;21.83;;;1.80;99.90;;;;;;5059249;28;37958;-77
2022/03/01 00:58:19;;;;;;;32.17;22.07;;;1.80;99.90;;;;;;5061630;28;39383;-76
2022/03/01 01:00:45;;;;;;;35.33;22.47;;;1.70;99.90;;;;;;5061403;28;39959;-76
2022/03/01 01:03:11;;;;;;;35.77;22.30;;;1.70;99.90;;;;;;5063635;28;38448;-76
2022/03/01 01:05:38;;;;;;;35.97;22.53;;;1.80;99.90;;;;;;5057729;28;38387;-76
2022/03/01 01:08:04;;;;;;;36.23;22.03;;;1.80;99.90;;;;;;5064154;28;38526;-76
2022/03/01 01:10:30;;;;;;;36.03;22.87;;;1.80;99.90;;;;;;5056209;28;39040;-76
2022/03/01 01:12:56;;;;;;;35.50;22.57;;;1.80;99.90;;;;;;5061541;28;40071;-76
2022/03/01 01:15:23;;;;;;;38.03;23.60;;;1.90;99.90;;;;;;5060338;28;38169;-77
2022/03/01 01:17:49;;;;;;;39.57;22.27;;;1.90;99.90;;;;;;5055326;28;39607;-76
2022/03/01 01:20:16;;;;;;;33.67;21.57;;;1.90;99.90;;;;;;5064959;28;37296;-76
2022/03/01 01:22:43;;;;;;;32.53;21.43;;;1.90;99.90;;;;;;5057826;28;38298;-76
2022/03/01 01:25:21;;;;;;;33.00;22.03;;;2.00;99.90;;;;;;5063064;28;37761;-77
2022/03/01 01:27:49;;;;;;;36.90;22.47;;;2.00;99.90;;;;;;5060660;28;40867;-76
2022/03/01 01:30:21;;;;;;;32.20;22.40;;;2.00;99.90;;;;;;5053355;28;39511;-77
2022/03/01 01:32:48;;;;;;;30.73;21.67;;;2.10;99.90;;;;;;5038777;28;39903;-77
2022/03/01 01:35:16;;;;;;;33.00;21.00;;;2.10;99.90;;;;;;5054498;28;39257;-77
2022/03/01 01:37:42;;;;;;;37.50;23.60;;;2.20;99.90;;;;;;5058910;28;37921;-77
2022/03/01 01:40:14;;;;;;;32.70;21.37;;;2.20;99.90;;;;;;5048686;28;38425;-76
2022/03/01 01:42:41;;;;;;;33.70;21.88;;;2.30;99.90;;;;;;5057986;28;39542;-77
2022/03/01 01:45:08;;;;;;;30.53;20.70;;;2.40;99.90;;;;;;5055068;28;37692;-76
2022/03/01 01:47:35;;;;;;;33.53;22.50;;;2.40;99.90;;;;;;5061110;28;40894;-77
2022/03/01 01:50:01;;;;;;;34.73;22.73;;;2.40;99.90;;;;;;5063745;28;39465;-76
2022/03/01 01:52:28;;;;;;;35.20;21.80;;;2.50;99.90;;;;;;5060721;28;48862;-77
2022/03/01 01:54:54;;;;;;;33.23;21.63;;;2.50;99.90;;;;;;5061420;28;37545;-77
2022/03/01 01:57:22;;;;;;;32.00;22.03;;;2.50;99.90;;;;;;5062037;28;39065;-76
2022/03/01 01:59:50;;;;;;;35.20;22.47;;;2.50;99.90;;;;;;5048716;28;39271;-77
2022/03/01 02:02:19;;;;;;;36.37;22.60;;;2.60;99.90;;;;;;5063914;28;38187;-76
2022/03/01 02:04:45;;;;;;;35.17;22.87;;;2.70;99.90;;;;;;5052819;28;39092;-77
2022/03/01 02:07:12;;;;;;;35.23;21.97;;;2.70;99.90;;;;;;5062092;28;40230;-77
2022/03/01 02:09:38;;;;;;;35.00;22.27;;;2.70;99.90;;;;;;5065440;28;39010;-77
2022/03/01 02:12:05;;;;;;;36.17;22.10;;;2.80;99.90;;;;;;5059224;28;38472;-76
2022/03/01 02:14:33;;;;;;;30.73;20.80;;;2.80;99.90;;;;;;5063108;28;38024;-77
2022/03/01 02:17:01;;;;;;;30.47;20.67;;;2.90;99.90;;;;;;5065477;28;40552;-77
2022/03/01 02:19:27;;;;;;;33.03;22.10;;;2.90;99.90;;;;;;5060294;28;40523;-77
2022/03/01 02:21:55;;;;;;;33.03;21.23;;;3.00;99.90;;;;;;5062227;28;39138;-77
2022/03/01 02:24:26;;;;;;;36.53;22.63;;;3.10;99.90;;;;;;5060715;28;38408;-76
2022/03/01 02:27:03;;;;;;;32.27;20.40;;;3.30;99.90;;;;;;5064017;28;40209;-76
2022/03/01 02:29:30;;;;;;;34.43;20.50;;;3.40;99.90;;;;;;5062969;28;48802;-77
2022/03/01 02:32:00;;;;;;;31.40;20.00;;;3.50;99.90;;;;;;5059576;28;37272;-77
2022/03/01 02:34:26;;;;;;;32.47;19.60;;;3.60;99.90;;;;;;5083099;28;34681;-77
2022/03/01 02:36:52;;;;;;;28.83;19.63;;;3.70;99.90;;;;;;5066663;28;38916;-77
2022/03/01 02:39:18;;;;;;;29.43;19.77;;;3.70;99.90;;;;;;5060906;28;37890;-77
2022/03/01 02:41:46;;;;;;;29.27;19.03;;;3.70;99.90;;;;;;5069162;28;39749;-77
2022/03/01 02:44:12;;;;;;;28.93;18.87;;;3.80;99.90;;;;;;5067648;28;37327;-77
2022/03/01 02:46:39;;;;;;;34.10;19.63;;;3.90;99.90;;;;;;5062081;28;37761;-77
2022/03/01 02:49:07;;;;;;;37.90;20.93;;;3.80;99.90;;;;;;5065040;28;38939;-77
2022/03/01 02:51:34;;;;;;;30.60;19.37;;;3.70;99.90;;;;;;5062879;28;38907;-77
2022/03/01 02:54:01;;;;;;;30.47;19.47;;;3.70;99.90;;;;;;5065979;28;37242;-77
2022/03/01 02:56:27;;;;;;;28.50;20.33;;;3.70;99.90;;;;;;5064471;28;47451;-77
2022/03/01 02:58:55;;;;;;;29.30;18.83;;;3.80;99.90;;;;;;5061767;28;37684;-77
2022/03/01 03:01:22;;;;;;;29.00;19.50;;;3.90;99.90;;;;;;5063043;28;39069;-77
2022/03/01 03:03:49;;;;;;;29.53;18.40;;;3.90;99.90;;;;;;5044915;28;37342;-77
2022/03/01 03:06:16;;;;;;;28.37;18.80;;;3.80;99.90;;;;;;5044110;28;38865;-77
2022/03/01 03:08:42;;;;;;;29.63;19.30;;;3.80;99.90;;;;;;5042432;28;39028;-77
2022/03/01 03:11:09;;;;;;;32.07;19.50;;;3.80;99.90;;;;;;5060429;28;38785;-77
2022/03/01 03:13:36;;;;;;;28.10;18.93;;;3.80;99.90;;;;;;5047893;28;37907;-77
2022/03/01 03:16:04;;;;;;;28.07;18.50;;;3.80;99.90;;;;;;5067468;28;39254;-76
2022/03/01 03:18:31;;;;;;;29.37;17.93;;;3.80;99.90;;;;;;5063997;28;38250;-77
2022/03/01 03:20:57;;;;;;;25.13;17.07;;;3.90;99.90;;;;;;5052049;28;38418;-76
2022/03/01 03:23:24;;;;;;;30.30;19.53;;;3.90;99.90;;;;;;5045270;28;37630;-77
2022/03/01 03:25:50;;;;;;;30.83;19.30;;;3.90;99.90;;;;;;5049671;28;39113;-77
2022/03/01 03:28:16;;;;;;;25.97;18.17;;;4.00;99.90;;;;;;5045952;28;39055;-77
2022/03/01 03:30:43;;;;;;;30.33;18.60;;;4.00;99.90;;;;;;5064283;28;39252;-77
2022/03/01 03:33:09;;;;;;;27.37;17.47;;;4.10;99.90;;;;;;5063779;28;39744;-77
2022/03/01 03:35:35;;;;;;;28.50;18.33;;;4.20;99.90;;;;;;5048695;28;39690;-78
2022/03/01 03:38:01;;;;;;;30.90;18.63;;;4.20;99.90;;;;;;5058726;28;38344;-77
2022/03/01 03:40:27;;;;;;;28.67;17.57;;;4.30;99.90;;;;;;5067924;28;38255;-78
2022/03/01 03:42:53;;;;;;;27.17;17.90;;;4.30;99.90;;;;;;5066650;28;37370;-77
2022/03/01 03:45:19;;;;;;;26.80;17.87;;;4.30;99.90;;;;;;5047508;28;39697;-78
2022/03/01 03:47:45;;;;;;;27.50;17.60;;;4.30;99.90;;;;;;5050391;28;37345;-78
2022/03/01 03:50:12;;;;;;;29.67;17.83;;;4.30;99.90;;;;;;5043172;28;39861;-77
2022/03/01 03:52:39;;;;;;;26.80;16.83;;;4.40;99.90;;;;;;5044594;28;37863;-77
2022/03/01 03:55:06;;;;;;;26.47;17.83;;;4.40;99.90;;;;;;5040821;28;40052;-77
2022/03/01 03:57:33;;;;;;;26.73;17.20;;;4.50;99.90;;;;;;5045216;28;39676;-77
2022/03/01 04:00:00;;;;;;;29.07;16.97;;;4.50;99.90;;;;;;5061962;28;38488;-77
2022/03/01 04:02:26;;;;;;;26.07;16.50;;;4.50;99.90;;;;;;5056876;28;38174;-77
2022/03/01 04:04:52;;;;;;;31.13;17.27;;;4.60;99.90;;;;;;5048742;28;39252;-77
2022/03/01 04:07:18;;;;;;;28.63;17.00;;;4.60;99.90;;;;;;5061556;28;40051;-77
2022/03/01 04:09:44;;;;;;;27.20;16.07;;;4.60;99.90;;;;;;5063417;28;39233;-77
2022/03/01 04:12:11;;;;;;;25.00;16.57;;;4.60;99.90;;;;;;5053090;28;38507;-77
2022/03/01 04:14:37;;;;;;;24.27;15.50;;;4.60;99.90;;;;;;5061526;28;39802;-77
2022/03/01 04:17:03;;;;;;;24.50;16.50;;;4.60;99.90;;;;;;5061752;28;38869;-77
2022/03/01 04:19:29;;;;;;;26.53;16.93;;;4.60;99.90;;;;;;5062960;28;38454;-77
2022/03/01 04:21:56;;;;;;;23.73;15.93;;;4.60;99.90;;;;;;5061150;28;37976;-77
2022/03/01 04:24:22;;;;;;;24.27;15.33;;;4.60;99.90;;;;;;5065030;28;39528;-77
2022/03/01 04:26:48;;;;;;;25.57;15.90;;;4.60;99.90;;;;;;5063808;28;39893;-77
2022/03/01 04:29:14;;;;;;;23.07;15.93;;;4.60;99.90;;;;;;5063360;28;38588;-77
2022/03/01 04:31:40;;;;;;;22.67;16.40;;;4.60;99.90;;;;;;5064303;28;37463;-77
2022/03/01 04:34:06;;;;;;;26.13;14.97;;;4.60;99.90;;;;;;5059645;28;39114;-77
2022/03/01 04:36:32;;;;;;;25.33;16.23;;;4.60;99.90;;;;;;5063893;28;39176;-77
2022/03/01 04:38:58;;;;;;;22.80;15.43;;;4.60;99.90;;;;;;5064820;28;38959;-77
2022/03/01 04:41:24;;;;;;;25.00;16.47;;;4.60;99.90;;;;;;5065414;28;37362;-77
2022/03/01 04:43:51;;;;;;;24.37;15.03;;;4.60;99.90;;;;;;5061851;28;38705;-77
2022/03/01 04:46:18;;;;;;;24.13;16.33;;;4.60;99.90;;;;;;5058450;28;37921;-77
2022/03/01 04:48:45;;;;;;;26.23;16.07;;;4.60;99.90;;;;;;5050465;28;38411;-77
2022/03/01 04:51:12;;;;;;;23.10;15.23;;;4.60;99.90;;;;;;5060590;28;38573;-77
2022/03/01 04:53:38;;;;;;;26.07;15.80;;;4.60;99.90;;;;;;5067036;28;37648;-77
2022/03/01 04:56:04;;;;;;;24.50;14.93;;;4.60;99.90;;;;;;5062669;28;40585;-77
2022/03/01 04:58:30;;;;;;;25.10;15.67;;;4.60;99.90;;;;;;5062348;28;38407;-77
2022/03/01 05:00:58;;;;;;;24.43;16.17;;;4.60;99.90;;;;;;5062652;28;37077;-77
2022/03/01 05:03:24;;;;;;;22.60;15.80;;;4.70;99.90;;;;;;5060827;28;38690;-77
2022/03/01 05:05:50;;;;;;;30.77;16.60;;;4.70;99.90;;;;;;5062943;28;39893;-77
2022/03/01 05:08:16;;;;;;;22.43;14.60;;;4.70;99.90;;;;;;5042042;28;39873;-77
2022/03/01 05:10:42;;;;;;;22.70;14.80;;;4.70;99.90;;;;;;5040340;28;37572;-77
2022/03/01 05:13:08;;;;;;;28.50;15.30;;;4.70;99.90;;;;;;5057491;28;39314;-77
2022/03/01 05:15:34;;;;;;;24.03;15.17;;;4.70;99.90;;;;;;5065678;28;39642;-77
2022/03/01 05:18:00;;;;;;;23.20;15.00;;;4.70;99.90;;;;;;5049938;28;38837;-77
2022/03/01 05:20:27;;;;;;;25.50;16.53;;;4.70;99.90;;;;;;5046087;28;36765;-77
2022/03/01 05:22:54;;;;;;;24.37;16.33;;;4.70;99.90;;;;;;5067980;28;38678;-77
2022/03/01 05:25:23;;;;;;;25.47;14.70;;;4.70;99.90;;;;;;5063170;28;39633;-77
2022/03/01 05:27:50;;;;;;;24.67;15.90;;;4.70;99.90;;;;;;5065313;28;38924;-77
2022/03/01 05:30:18;;;;;;;23.37;14.70;;;4.70;99.90;;;;;;5044698;28;36226;-77
2022/03/01 05:32:46;;;;;;;25.10;15.57;;;4.80;99.90;;;;;;5064252;28;38938;-77
2022/03/01 05:35:14;;;;;;;22.17;14.90;;;4.70;99.90;;;;;;5042408;28;41706;-77
2022/03/01 05:37:42;;;;;;;23.43;15.17;;;4.70;99.90;;;;;;5044526;28;38675;-77
2022/03/01 05:40:10;;;;;;;26.77;15.10;;;4.70;99.90;;;;;;5062831;28;38686;-77
2022/03/01 05:42:36;;;;;;;24.93;15.40;;;4.70;99.90;;;;;;5046117;28;40404;-77
2022/03/01 05:45:06;;;;;;;25.57;15.83;;;4.80;99.90;;;;;;5041565;28;39424;-77
2022/03/01 05:47:32;;;;;;;25.30;15.63;;;4.80;99.90;;;;;;5045346;28;38939;-77
2022/03/01 05:49:59;;;;;;;25.10;14.90;;;4.80;99.90;;;;;;5047310;28;38616;-77
2022/03/01 05:52:25;;;;;;;25.63;15.43;;;4.80;99.90;;;;;;5042710;28;39177;-77
2022/03/01 05:54:51;;;;;;;27.23;15.30;;;4.80;99.90;;;;;;5062430;28;39545;-77
2022/03/01 05:57:17;;;;;;;21.47;15.07;;;4.80;99.90;;;;;;5061133;28;38331;-77
2022/03/01 05:59:44;;;;;;;22.10;14.07;;;4.90;99.90;;;;;;5038979;28;36733;-77
2022/03/01 06:02:10;;;;;;;24.03;14.70;;;4.90;99.90;;;;;;5063662;28;37975;-77
2022/03/01 06:04:36;;;;;;;24.27;15.00;;;4.90;99.90;;;;;;5066570;28;39415;-77
2022/03/01 06:07:02;;;;;;;23.43;14.80;;;4.90;99.90;;;;;;5061913;28;39050;-76
2022/03/01 06:09:28;;;;;;;21.93;13.80;;;4.90;99.90;;;;;;5065206;28;38371;-76
2022/03/01 06:11:54;;;;;;;25.90;15.20;;;4.90;99.90;;;;;;5062762;28;38747;-79
2022/03/01 06:14:20;;;;;;;24.97;15.70;;;4.90;99.90;;;;;;5064550;28;38466;-77
2022/03/01 06:16:47;;;;;;;23.53;15.03;;;4.90;99.90;;;;;;5062524;28;39251;-79
2022/03/01 06:19:13;;;;;;;26.00;14.87;;;4.90;99.90;;;;;;5057221;28;37392;-77
2022/03/01 06:21:39;;;;;;;22.97;14.90;;;4.90;99.90;;;;;;5056504;28;40622;-77
2022/03/01 06:24:05;;;;;;;23.37;15.53;;;4.90;99.90;;;;;;5060951;28;38967;-79
2022/03/01 06:26:32;;;;;;;24.67;15.50;;;4.80;99.90;;;;;;5055231;28;40523;-78
2022/03/01 06:28:58;;;;;;;23.87;14.47;;;4.80;99.90;;;;;;5065390;28;36403;-77
2022/03/01 06:31:25;;;;;;;20.03;14.20;;;4.80;99.90;;;;;;5062036;28;39003;-77
2022/03/01 06:33:51;;;;;;;22.77;14.37;;;4.80;99.90;;;;;;5057807;28;38832;-77
2022/03/01 06:36:17;;;;;;;25.17;14.60;;;4.80;99.90;;;;;;5056148;28;39080;-77
2022/03/01 06:38:43;;;;;;;21.87;14.83;;;4.80;99.90;;;;;;5062581;28;37486;-77
2022/03/01 06:41:09;;;;;;;20.47;14.30;;;4.80;99.90;;;;;;5062431;28;36362;-76
2022/03/01 06:43:36;;;;;;;21.10;14.67;;;4.80;99.90;;;;;;5058876;28;39835;-77
2022/03/01 06:46:02;;;;;;;21.00;13.50;;;4.90;99.90;;;;;;5056527;28;39653;-77
2022/03/01 06:48:28;;;;;;;21.97;13.87;;;4.80;99.90;;;;;;5052465;28;38338;-78
2022/03/01 06:50:54;;;;;;;22.23;14.13;;;4.90;99.90;;;;;;5068466;28;38882;-77
2022/03/01 06:53:20;;;;;;;21.47;14.40;;;4.90;99.90;;;;;;5062484;28;38498;-77
2022/03/01 06:55:46;;;;;;;29.80;14.70;;;5.00;99.90;;;;;;5060542;28;40090;-77
2022/03/01 06:58:13;;;;;;;22.70;14.73;;;5.00;99.90;;;;;;5062502;28;38183;-77
2022/03/01 07:00:39;;;;;;;28.70;14.50;;;5.00;99.90;;;;;;5050798;28;39259;-77
2022/03/01 07:03:05;;;;;;;21.20;14.20;;;5.00;99.90;;;;;;5065419;28;38598;-77
2022/03/01 07:05:32;;;;;;;20.10;14.00;;;5.00;99.90;;;;;;5055149;28;38505;-77
2022/03/01 07:07:58;;;;;;;22.47;13.83;;;5.00;99.90;;;;;;5067587;28;38253;-77
2022/03/01 07:10:24;;;;;;;19.13;13.63;;;5.00;99.90;;;;;;5063806;28;40494;-77
2022/03/01 07:12:51;;;;;;;21.13;14.07;;;5.10;99.90;;;;;;5065701;28;39031;-77
2022/03/01 07:15:18;;;;;;;23.93;13.93;;;5.10;99.90;;;;;;5063610;28;40128;-78
2022/03/01 07:17:46;;;;;;;21.87;14.20;;;5.10;99.90;;;;;;5065638;28;39058;-78
2022/03/01 07:20:12;;;;;;;21.40;13.80;;;5.10;99.90;;;;;;5064813;28;39105;-77
2022/03/01 07:22:39;;;;;;;18.80;12.00;;;5.10;99.90;;;;;;5063078;28;40384;-77
2022/03/01 07:25:06;;;;;;;20.13;13.80;;;5.20;99.90;;;;;;5065330;28;38574;-77
2022/03/01 07:27:32;;;;;;;20.80;12.67;;;5.20;99.90;;;;;;5063484;28;38221;-77
2022/03/01 07:29:59;;;;;;;20.57;14.20;;;5.20;99.90;;;;;;5068377;28;38676;-77
2022/03/01 07:32:25;;;;;;;21.30;13.67;;;5.20;99.90;;;;;;5062961;28;38698;-77
2022/03/01 07:34:51;;;;;;;18.23;13.13;;;5.30;99.90;;;;;;5060615;28;39360;-76
2022/03/01 07:37:18;;;;;;;19.57;12.80;;;5.30;99.90;;;;;;5055193;28;36241;-77
2022/03/01 07:39:44;;;;;;;24.57;13.90;;;5.30;99.90;;;;;;5065028;28;40556;-77
2022/03/01 07:42:10;;;;;;;23.77;13.23;;;5.40;99.90;;;;;;5062601;28;39255;-77
2022/03/01 07:44:37;;;;;;;21.43;13.63;;;5.50;99.90;;;;;;5060362;28;38887;-77
2022/03/01 07:47:07;;;;;;;20.43;13.23;;;5.50;99.90;;;;;;5063330;28;38974;-79
2022/03/01 07:49:34;;;;;;;20.53;13.40;;;5.50;99.90;;;;;;5063905;28;39212;-79
2022/03/01 07:52:01;;;;;;;20.90;14.00;;;5.60;99.90;;;;;;5062953;28;39004;-79
2022/03/01 07:54:27;;;;;;;22.23;14.03;;;5.60;99.90;;;;;;5062328;28;48573;-79
2022/03/01 07:56:53;;;;;;;19.97;13.77;;;5.50;99.90;;;;;;5061121;28;38021;-80
2022/03/01 07:59:19;;;;;;;22.27;13.63;;;5.50;99.90;;;;;;5060672;28;38918;-80
2022/03/01 08:01:45;;;;;;;22.85;12.90;;;5.60;99.90;;;;;;5059364;28;38818;-79
2022/03/01 08:04:11;;;;;;;28.63;14.80;;;5.50;99.90;;;;;;5042672;28;39378;-79
2022/03/01 08:06:37;;;;;;;18.67;13.00;;;5.40;99.90;;;;;;5044718;28;38051;-79
2022/03/01 08:09:04;;;;;;;19.77;13.20;;;5.50;99.90;;;;;;5053776;28;38586;-77
2022/03/01 08:11:30;;;;;;;21.50;13.57;;;5.50;99.90;;;;;;5043301;28;39273;-79
2022/03/01 08:13:56;;;;;;;20.10;13.67;;;5.50;99.90;;;;;;5066751;28;39646;-79
2022/03/01 08:16:23;;;;;;;20.43;13.80;;;5.40;99.90;;;;;;5043820;28;36317;-79
2022/03/01 08:18:49;;;;;;;20.87;13.67;;;5.40;99.90;;;;;;5037098;28;37779;-79
2022/03/01 08:21:15;;;;;;;21.37;13.60;;;5.40;99.90;;;;;;5039187;28;38870;-79
2022/03/01 08:23:42;;;;;;;21.93;13.80;;;5.40;99.90;;;;;;5044148;28;40378;-79
2022/03/01 08:26:09;;;;;;;20.50;13.93;;;5.40;99.90;;;;;;5061291;28;38322;-79
2022/03/01 08:28:35;;;;;;;21.07;13.30;;;5.50;99.90;;;;;;5044916;28;37692;-78
2022/03/01 08:31:01;;;;;;;21.73;13.60;;;5.50;99.90;;;;;;5070266;28;38577;-80
2022/03/01 08:33:27;;;;;;;21.97;14.20;;;5.50;99.90;;;;;;5046025;28;47078;-79
2022/03/01 08:35:55;;;;;;;26.67;14.60;;;5.40;99.90;;;;;;5054006;28;39167;-80
2022/03/01 08:38:21;;;;;;;21.00;14.10;;;5.40;99.90;;;;;;5054190;28;38291;-79
2022/03/01 08:40:48;;;;;;;24.43;14.37;;;5.30;99.90;;;;;;5067086;28;39758;-79
2022/03/01 08:43:15;;;;;;;25.63;15.20;;;5.30;99.90;;;;;;5065733;28;38452;-79
2022/03/01 08:45:42;;;;;;;22.97;14.30;;;5.30;99.90;;;;;;5064976;28;37748;-79
2022/03/01 08:48:08;;;;;;;24.03;15.53;;;5.40;99.90;;;;;;5065729;28;38652;-79
2022/03/01 08:50:35;;;;;;;20.67;13.83;;;5.40;99.90;;;;;;5047106;28;39229;-79
2022/03/01 08:53:01;;;;;;;21.33;13.90;;;5.40;99.90;;;;;;5066394;28;37837;-79
2022/03/01 08:55:28;;;;;;;21.50;13.93;;;5.50;99.90;;;;;;5030010;28;46226;-79
2022/03/01 08:57:54;;;;;;;23.20;14.70;;;5.50;99.90;;;;;;5063295;28;38779;-79
2022/03/01 09:00:27;;;;;;;23.70;14.70;;;5.50;99.90;;;;;;5037978;28;39597;-78
2022/03/01 09:02:53;;;;;;;;;;;5.50;99.90;;;;;;5058798;28;39011;-78
2022/03/01 09:05:19;;;;;;;23.23;14.10;;;5.60;99.90;;;;;;5044286;28;38384;-79
2022/03/01 09:07:46;;;;;;;22.20;14.90;;;5.60;99.90;;;;;;5045191;28;39429;-79
2022/03/01 09:10:12;;;;;;;24.87;15.03;;;5.60;99.90;;;;;;5046186;28;40119;-79
2022/03/01 09:12:38;;;;;;;23.57;14.83;;;5.60;99.90;;;;;;5060874;28;39582;-79
2022/03/01 09:15:05;;;;;;;20.63;14.93;;;5.70;99.90;;;;;;5043063;28;38328;-79
2022/03/01 09:17:31;;;;;;;20.60;14.77;;;5.80;99.90;;;;;;5037650;28;39417;-79
2022/03/01 09:19:57;;;;;;;22.33;14.97;;;5.80;99.90;;;;;;5028718;28;38801;-80
2022/03/01 09:22:24;;;;;;;22.70;14.07;;;5.70;99.90;;;;;;5040366;28;37327;-79
2022/03/01 09:24:50;;;;;;;23.90;14.70;;;5.70;99.90;;;;;;5039261;28;38223;-79
2022/03/01 09:27:16;;;;;;;26.10;15.63;;;5.60;99.90;;;;;;5040863;28;38063;-79
2022/03/01 09:29:44;;;;;;;24.63;15.30;;;5.50;99.90;;;;;;5060967;28;39774;-79
2022/03/01 09:32:10;;;;;;;21.43;14.23;;;5.60;99.90;;;;;;5042547;28;39039;-79
2022/03/01 09:34:36;;;;;;;24.10;15.07;;;5.50;99.90;;;;;;5044219;28;37586;-78
2022/03/01 09:37:02;;;;;;;23.30;15.27;;;5.50;99.90;;;;;;5042338;28;39559;-79
2022/03/01 09:39:28;;;;;;;22.23;15.73;;;5.50;99.90;;;;;;5060528;28;37801;-79
2022/03/01 09:41:55;;;;;;;21.97;14.77;;;5.40;99.90;;;;;;5043795;28;40388;-81
2022/03/01 09:44:22;;;;;;;24.47;16.77;;;5.40;99.90;;;;;;5058648;28;37497;-79
2022/03/01 09:46:48;;;;;;;27.57;16.23;;;5.30;99.90;;;;;;5048474;28;39631;-79
2022/03/01 09:49:16;;;;;;;24.97;16.30;;;5.30;99.90;;;;;;5057757;28;38748;-79
2022/03/01 09:51:42;;;;;;;26.57;17.90;;;5.40;99.90;;;;;;5059429;28;38719;-79
2022/03/01 09:54:09;;;;;;;26.70;16.50;;;5.40;99.90;;;;;;5045616;28;36500;-80
2022/03/01 09:56:36;;;;;;;24.73;17.20;;;5.50;99.90;;;;;;5040392;28;37753;-79
2022/03/01 09:59:03;;;;;;;24.17;15.80;;;5.60;99.90;;;;;;5045414;28;38196;-79
2022/03/01 10:01:29;;;;;;;26.57;16.77;;;5.60;99.90;;;;;;5055010;28;40194;-80
2022/03/01 10:04:07;;;;;;;23.03;16.30;;;5.60;99.90;;;;;;5064138;28;40641;-80
2022/03/01 10:06:40;;;;;;;24.13;17.13;;;5.60;99.90;;;;;;5045636;28;47389;-80
2022/03/01 10:09:13;;;;;;;25.23;16.77;;;5.70;99.90;;;;;;5061780;28;38562;-80
2022/03/01 10:11:39;;;;;;;23.90;17.03;;;5.60;99.90;;;;;;5061214;28;38604;-80
2022/03/01 10:14:05;;;;;;;26.20;17.40;;;5.70;99.90;;;;;;5066165;28;38950;-80
2022/03/01 10:16:38;;;;;;;25.20;17.87;;;5.60;99.90;;;;;;5059458;28;38973;-80
2022/03/01 10:19:18;;;;;;;26.98;18.25;;;5.50;99.90;;;;;;5062479;28;40164;-80
2022/03/01 10:21:56;;;;;;;24.07;17.20;;;5.50;99.90;;;;;;5061439;28;39074;-81
2022/03/01 10:24:22;;;;;;;23.90;17.80;;;5.50;99.90;;;;;;5042291;28;36980;-80
2022/03/01 10:26:49;;;;;;;28.37;17.37;;;5.50;99.90;;;;;;5063393;28;39693;-80
2022/03/01 10:29:17;;;;;;;25.50;18.40;;;5.50;99.90;;;;;;5067304;28;39692;-80
2022/03/01 10:31:49;;;;;;;23.60;17.37;;;5.50;99.90;;;;;;5066223;28;39174;-80
2022/03/01 10:34:16;;;;;;;24.20;17.23;;;5.40;99.90;;;;;;5065449;28;36378;-80
2022/03/01 10:36:49;;;;;;;28.80;19.57;;;5.30;99.90;;;;;;5065275;28;38773;-80
2022/03/01 10:39:34;;;;;;;25.37;18.63;;;5.20;99.90;;;;;;5058346;28;38936;-80
2022/03/01 10:42:03;;;;;;;29.23;18.27;;;5.20;99.90;;;;;;5067286;28;38595;-80
2022/03/01 10:44:30;;;;;;;28.27;18.43;;;5.10;99.90;;;;;;5067595;28;48789;-80
2022/03/01 10:47:04;;;;;;;28.13;18.23;;;5.20;99.90;;;;;;5066399;28;39644;-80
2022/03/01 10:49:32;;;;;;;28.93;18.97;;;5.30;99.90;;;;;;5065998;28;49035;-80
2022/03/01 10:52:03;;;;;;;27.37;18.33;;;5.40;99.90;;;;;;5066093;28;38611;-80
2022/03/01 10:54:34;;;;;;;32.47;20.10;;;5.40;99.90;;;;;;5066707;28;48905;-80
2022/03/01 10:57:02;;;;;;;25.23;17.53;;;5.50;99.90;;;;;;5066463;28;40778;-80
2022/03/01 10:59:31;;;;;;;29.07;19.93;;;5.80;99.90;;;;;;5067120;28;49254;-80
2022/03/01 11:01:57;;;;;;;26.83;18.90;;;6.00;99.90;;;;;;5052098;28;37258;-80
2022/03/01 11:04:25;;;;;;;28.27;19.50;;;6.20;99.90;;;;;;5051791;28;36430;-80
2022/03/01 11:06:53;;;;;;;25.20;18.27;;;6.30;99.90;;;;;;5068117;28;38877;-80
2022/03/01 11:09:24;;;;;;;28.67;18.57;;;6.40;99.90;;;;;;5065964;28;38821;-80
2022/03/01 11:11:52;;;;;;;27.63;19.50;;;6.70;99.90;;;;;;5065206;28;39260;-81
2022/03/01 11:14:59;;;;;;;27.37;18.57;;;6.60;99.90;;;;;;5068725;28;38686;-81
2022/03/01 11:17:46;;;;;;;25.53;18.57;;;6.30;99.90;;;;;;5061815;28;40095;-81
2022/03/01 11:20:18;;;;;;;29.40;17.80;;;6.40;99.90;;;;;;5066542;28;38067;-80
2022/03/01 11:22:49;;;;;;;33.28;18.42;;;6.60;99.90;;;;;;5066048;28;38622;-80
2022/03/01 11:25:21;;;;;;;26.57;17.60;;;6.70;99.90;;;;;;5055125;28;37554;-80
2022/03/01 11:27:49;;;;;;;27.48;18.13;;;6.80;99.90;;;;;;5063747;28;39900;-80
2022/03/01 11:30:17;;;;;;;25.33;17.53;;;6.70;99.90;;;;;;5065255;28;39017;-81
2022/03/01 11:32:46;;;;;;;29.97;18.77;;;6.70;99.90;;;;;;5084852;22;39686;-78
2022/03/01 11:35:22;;;;;;;25.00;17.57;;;6.70;99.90;;;;;;5056695;28;37314;-79
2022/03/01 11:38:05;;;;;;;30.13;17.90;;;6.60;99.90;;;;;;5038916;28;39315;-78
2022/03/01 11:40:35;;;;;;;29.20;18.07;;;6.70;99.90;;;;;;5043550;28;47492;-78
2022/03/01 11:43:13;;;;;;;27.13;18.17;;;7.10;99.90;;;;;;5063284;28;38552;-78
2022/03/01 11:45:46;;;;;;;24.83;16.93;;;7.50;99.90;;;;;;5043739;28;47413;-78
2022/03/01 11:48:23;;;;;;;27.02;16.73;;;7.70;99.90;;;;;;5066359;28;38741;-78
2022/03/01 11:51:05;;;;;;;24.37;16.57;;;7.80;99.90;;;;;;5062094;28;38709;-78
2022/03/01 11:53:35;;;;;;;21.97;15.53;;;8.20;99.90;;;;;;5067770;28;48870;-78
2022/03/01 11:56:04;;;;;;;22.10;16.00;;;8.30;99.90;;;;;;5049485;28;37956;-78
2022/03/01 11:58:33;;;;;;;25.90;16.77;;;8.30;99.90;;;;;;5045056;28;39703;-78
2022/03/01 12:01:02;;;;;;;23.83;16.37;;;8.20;99.90;;;;;;5060131;28;38442;-78
2022/03/01 12:03:29;;;;;;;22.10;16.13;;;8.50;99.90;;;;;;5063527;28;47787;-78
2022/03/01 12:05:56;;;;;;;25.37;16.60;;;8.50;99.90;;;;;;5048431;28;38520;-77
2022/03/01 12:08:23;;;;;;;26.50;16.23;;;8.30;99.90;;;;;;5059502;28;39027;-77
2022/03/01 12:10:53;;;;;;;22.80;16.60;;;8.50;99.90;;;;;;5054565;28;38143;-77
2022/03/01 12:13:20;;;;;;;19.63;15.07;;;8.30;99.90;;;;;;5058712;28;38096;-77
2022/03/01 12:15:57;;;;;;;25.03;17.13;;;8.20;99.90;;;;;;5054587;28;37235;-78
2022/03/01 12:18:29;;;;;;;23.33;15.37;;;8.30;99.90;;;;;;5056656;28;38361;-78
2022/03/01 12:21:01;;;;;;;23.20;16.38;;;8.30;99.90;;;;;;5053664;28;40111;-78
2022/03/01 12:23:32;;;;;;;24.67;17.38;;;8.00;99.90;;;;;;5042257;28;46564;-78
2022/03/01 12:26:04;;;;;;;21.90;15.70;;;7.90;99.90;;;;;;5053459;28;38858;-77
2022/03/01 12:28:37;;;;;;;25.33;16.73;;;7.80;99.90;;;;;;5052000;28;49065;-78
2022/03/01 12:31:14;;;;;;;26.40;17.17;;;7.80;99.90;;;;;;5033541;28;37706;-76
2022/03/01 12:34:08;;;;;;;23.53;15.83;;;7.80;99.90;;;;;;5028616;28;38536;-77
2022/03/01 12:36:36;;;;;;;24.97;16.50;;;8.00;99.90;;;;;;5008355;28;47404;-78
2022/03/01 12:39:14;;;;;;;29.47;16.33;;;7.90;99.90;;;;;;5049381;28;38542;-78
2022/03/01 12:41:41;;;;;;;25.43;17.13;;;7.90;99.90;;;;;;5035354;28;38216;-78